sensor_id;sensor_type;location;lat;lon;timestamp;temperature;humidity
21627;DHT22;10975;47.872;12.972;2023-04-10T00:02:24;3.50;99.90
21627;DHT22;10975;47.872;12.972;2023-04-10T00:04:51;3.50;99.90
21627;DHT22;10975;47.872;12.972;2023-04-10T00:07:18;3.60;99.90
21627;DHT22;10975;47.872;12.972;2023-04-10T00:09:45;3.60;99.90
21627;DHT22;10975;47.872;12.972;2023-04-10T00:12:11;3.60;99.90
21627;DHT22;10975;47.872;12.972;2023-04-10T00:14:38;3.70;99.90
21627;DHT22;10975;47.872;12.972;2023-04-10T00:17:05;3.80;99.90
21627;DHT22;10975;47.872;12.972;2023-04-10T00:19:32;3.80;99.90
21627;DHT22;10975;47.872;12.972;2023-04-10T00:21:58;3.80;99.90
21627;DHT22;10975;47.872;12.972;2023-04-10T00:24:25;3.80;99.90
21627;DHT22;10975;47.872;12.972;2023-04-10T00:26:52;3.90;99.90
21627;DHT22;10975;47.872;12.972;2023-04-10T00:29:18;3.90;99.90
21627;DHT22;10975;47.872;12.972;2023-04-10T00:31:45;3.90;99.90
21627;DHT22;10975;47.872;12.972;2023-04-10T00:34:12;3.90;99.90
21627;DHT22;10975;47.872;12.972;2023-04-10T00:36:39;4.00;99.90
21627;DHT22;10975;47.872;12.972;2023-04-10T00:39:07;4.00;99.90
21627;DHT22;10975;47.872;12.972;2023-04-10T00:41:34;4.00;99.90
21627;DHT22;10975;47.872;12.972;2023-04-10T00:44:01;4.00;99.90
21627;DHT22;10975;47.872;12.972;2023-04-10T00:46:28;4.00;99.90
21627;DHT22;10975;47.872;12.972;2023-04-10T00:48:56;4.10;99.90
21627;DHT22;10975;47.872;12.972;2023-04-10T00:51:23;4.00;99.90
21627;DHT22;10975;47.872;12.972;2023-04-10T00:53:52;4.10;99.90
21627;DHT22;10975;47.872;12.972;2023-04-10T00:56:20;4.10;99.90
21627;DHT22;10975;47.872;12.972;2023-04-10T00:58:49;4.10;99.90
21627;DHT22;10975;47.872;12.972;2023-04-10T01:01:16;4.10;99.90
21627;DHT22;10975;47.872;12.972;2023-04-10T01:03:43;4.20;99.90
21627;DHT22;10975;47.872;12.972;2023-04-10T01:06:34;4.20;99.90
21627;DHT22;10975;47.872;12.972;2023-04-10T01:09:09;4.20;99.90
21627;DHT22;10975;47.872;12.972;2023-04-10T01:11:42;4.20;99.90
21627;DHT22;10975;47.872;12.972;2023-04-10T01:14:13;4.20;99.90
21627;DHT22;10975;47.872;12.972;2023-04-10T01:16:44;4.20;99.90
21627;DHT22;10975;47.872;12.972;2023-04-10T01:19:25;4.20;99.90
21627;DHT22;10975;47.872;12.972;2023-04-10T01:21:54;4.20;99.90
21627;DHT22;10975;47.872;12.972;2023-04-10T01:27:24;4.30;99.90
21627;DHT22;10975;47.872;12.972;2023-04-10T01:29:55;4.30;99.90
21627;DHT22;10975;47.872;12.972;2023-04-10T01:32:23;4.40;99.90
21627;DHT22;10975;47.872;12.972;2023-04-10T01:34:50;4.40;99.90
21627;DHT22;10975;47.872;12.972;2023-04-10T01:39:46;4.50;99.90
21627;DHT22;10975;47.872;12.972;2023-04-10T01:42:15;4.50;99.90
21627;DHT22;10975;47.872;12.972;2023-04-10T01:44:43;4.50;99.90
21627;DHT22;10975;47.872;12.972;2023-04-10T01:47:13;4.50;99.90
21627;DHT22;10975;47.872;12.972;2023-04-10T01:49:40;4.50;99.90
21627;DHT22;10975;47.872;12.972;2023-04-10T01:52:12;4.50;99.90
21627;DHT22;10975;47.872;12.972;2023-04-10T01:54:39;4.50;99.90
21627;DHT22;10975;47.872;12.972;2023-04-10T01:57:08;4.50;99.90
21627;DHT22;10975;47.872;12.972;2023-04-10T01:59:37;4.50;99.90
21627;DHT22;10975;47.872;12.972;2023-04-10T02:02:04;4.50;99.90
21627;DHT22;10975;47.872;12.972;2023-04-10T02:04:33;4.50;99.90
21627;DHT22;10975;47.872;12.972;2023-04-10T02:09:35;4.60;99.90
21627;DHT22;10975;47.872;12.972;2023-04-10T02:12:04;4.60;99.90
21627;DHT22;10975;47.872;12.972;2023-04-10T02:14:33;4.60;99.90
21627;DHT22;10975;47.872;12.972;2023-04-10T02:17:01;4.60;99.90
21627;DHT22;10975;47.872;12.972;2023-04-10T02:19:29;4.60;99.90
21627;DHT22;10975;47.872;12.972;2023-04-10T02:21:57;4.60;99.90
21627;DHT22;10975;47.872;12.972;2023-04-10T02:24:24;4.60;99.90
21627;DHT22;10975;47.872;12.972;2023-04-10T02:26:51;4.60;99.90
21627;DHT22;10975;47.872;12.972;2023-04-10T02:29:18;4.60;99.90
21627;DHT22;10975;47.872;12.972;2023-04-10T02:31:45;4.60;99.90
21627;DHT22;10975;47.872;12.972;2023-04-10T02:34:12;4.50;99.90
21627;DHT22;10975;47.872;12.972;2023-04-10T02:36:39;4.50;99.90
21627;DHT22;10975;47.872;12.972;2023-04-10T02:39:06;4.40;99.90
21627;DHT22;10975;47.872;12.972;2023-04-10T02:41:33;4.30;99.90
21627;DHT22;10975;47.872;12.972;2023-04-10T02:44:00;4.20;99.90
21627;DHT22;10975;47.872;12.972;2023-04-10T02:46:27;4.20;99.90
21627;DHT22;10975;47.872;12.972;2023-04-10T02:48:53;4.10;99.90
21627;DHT22;10975;47.872;12.972;2023-04-10T02:51:20;4.00;99.90
21627;DHT22;10975;47.872;12.972;2023-04-10T02:53:47;3.90;99.90
21627;DHT22;10975;47.872;12.972;2023-04-10T02:56:14;3.90;99.90
21627;DHT22;10975;47.872;12.972;2023-04-10T02:58:41;3.80;99.90
21627;DHT22;10975;47.872;12.972;2023-04-10T03:01:11;3.70;99.90
21627;DHT22;10975;47.872;12.972;2023-04-10T03:03:38;3.70;99.90
21627;DHT22;10975;47.872;12.972;2023-04-10T03:06:05;3.60;99.90
21627;DHT22;10975;47.872;12.972;2023-04-10T03:08:33;3.60;99.90
21627;DHT22;10975;47.872;12.972;2023-04-10T03:11:00;3.60;99.90
21627;DHT22;10975;47.872;12.972;2023-04-10T03:13:27;3.50;99.90
21627;DHT22;10975;47.872;12.972;2023-04-10T03:15:53;3.50;99.90
21627;DHT22;10975;47.872;12.972;2023-04-10T03:18:21;3.40;99.90
21627;DHT22;10975;47.872;12.972;2023-04-10T03:20:47;3.30;99.90
21627;DHT22;10975;47.872;12.972;2023-04-10T03:23:14;3.20;99.90
21627;DHT22;10975;47.872;12.972;2023-04-10T03:25:41;3.20;99.90
21627;DHT22;10975;47.872;12.972;2023-04-10T03:28:08;3.10;99.90
21627;DHT22;10975;47.872;12.972;2023-04-10T03:30:35;3.10;99.90
21627;DHT22;10975;47.872;12.972;2023-04-10T03:33:02;3.00;99.90
21627;DHT22;10975;47.872;12.972;2023-04-10T03:35:29;2.90;99.90
21627;DHT22;10975;47.872;12.972;2023-04-10T03:37:56;2.90;99.90
21627;DHT22;10975;47.872;12.972;2023-04-10T03:40:23;2.80;99.90
21627;DHT22;10975;47.872;12.972;2023-04-10T03:42:49;2.80;99.90
21627;DHT22;10975;47.872;12.972;2023-04-10T03:45:16;2.70;99.90
21627;DHT22;10975;47.872;12.972;2023-04-10T03:47:43;2.70;99.90
21627;DHT22;10975;47.872;12.972;2023-04-10T03:50:10;2.60;99.90
21627;DHT22;10975;47.872;12.972;2023-04-10T03:52:36;2.60;99.90
21627;DHT22;10975;47.872;12.972;2023-04-10T03:55:03;2.60;99.90
21627;DHT22;10975;47.872;12.972;2023-04-10T03:57:30;2.60;99.90
21627;DHT22;10975;47.872;12.972;2023-04-10T03:59:57;2.50;99.90
21627;DHT22;10975;47.872;12.972;2023-04-10T04:02:23;2.50;99.90
21627;DHT22;10975;47.872;12.972;2023-04-10T04:04:50;2.50;99.90
21627;DHT22;10975;47.872;12.972;2023-04-10T04:07:17;2.40;99.90
21627;DHT22;10975;47.872;12.972;2023-04-10T04:09:44;2.30;99.90
21627;DHT22;10975;47.872;12.972;2023-04-10T04:12:10;2.30;99.90
21627;DHT22;10975;47.872;12.972;2023-04-10T04:14:37;2.20;99.90
21627;DHT22;10975;47.872;12.972;2023-04-10T04:17:04;2.20;99.90
21627;DHT22;10975;47.872;12.972;2023-04-10T04:19:31;2.20;99.90
21627;DHT22;10975;47.872;12.972;2023-04-10T04:21:57;2.20;99.90
21627;DHT22;10975;47.872;12.972;2023-04-10T04:24:25;2.20;99.90
21627;DHT22;10975;47.872;12.972;2023-04-10T04:26:52;2.20;99.90
21627;DHT22;10975;47.872;12.972;2023-04-10T04:29:19;2.10;99.90
21627;DHT22;10975;47.872;12.972;2023-04-10T04:31:46;2.10;99.90
21627;DHT22;10975;47.872;12.972;2023-04-10T04:34:12;2.10;99.90
21627;DHT22;10975;47.872;12.972;2023-04-10T04:36:39;2.10;99.90
21627;DHT22;10975;47.872;12.972;2023-04-10T04:39:05;2.10;99.90
21627;DHT22;10975;47.872;12.972;2023-04-10T04:41:32;2.00;99.90
21627;DHT22;10975;47.872;12.972;2023-04-10T04:44:00;2.10;99.90
21627;DHT22;10975;47.872;12.972;2023-04-10T04:46:27;2.10;99.90
21627;DHT22;10975;47.872;12.972;2023-04-10T04:48:54;2.10;99.90
21627;DHT22;10975;47.872;12.972;2023-04-10T04:51:20;2.20;99.90
21627;DHT22;10975;47.872;12.972;2023-04-10T04:53:47;2.20;99.90
21627;DHT22;10975;47.872;12.972;2023-04-10T04:56:14;2.20;99.90
21627;DHT22;10975;47.872;12.972;2023-04-10T04:58:40;2.10;99.90
21627;DHT22;10975;47.872;12.972;2023-04-10T05:01:07;2.10;99.90
21627;DHT22;10975;47.872;12.972;2023-04-10T05:03:35;2.10;99.90
21627;DHT22;10975;47.872;12.972;2023-04-10T05:06:02;2.10;99.90
21627;DHT22;10975;47.872;12.972;2023-04-10T05:08:29;2.10;99.90
21627;DHT22;10975;47.872;12.972;2023-04-10T05:10:56;2.20;99.90
21627;DHT22;10975;47.872;12.972;2023-04-10T05:13:22;2.20;99.90
21627;DHT22;10975;47.872;12.972;2023-04-10T05:15:49;2.30;99.90
21627;DHT22;10975;47.872;12.972;2023-04-10T05:18:16;2.30;99.90
21627;DHT22;10975;47.872;12.972;2023-04-10T05:20:45;2.40;99.90
21627;DHT22;10975;47.872;12.972;2023-04-10T05:23:12;2.40;99.90
21627;DHT22;10975;47.872;12.972;2023-04-10T05:25:39;2.50;99.90
21627;DHT22;10975;47.872;12.972;2023-04-10T05:28:06;2.60;99.90
21627;DHT22;10975;47.872;12.972;2023-04-10T05:30:33;2.60;99.90
21627;DHT22;10975;47.872;12.972;2023-04-10T05:33:00;2.70;99.90
21627;DHT22;10975;47.872;12.972;2023-04-10T05:35:26;2.70;99.90
21627;DHT22;10975;47.872;12.972;2023-04-10T05:37:53;2.70;99.90
21627;DHT22;10975;47.872;12.972;2023-04-10T05:40:20;2.80;99.90
21627;DHT22;10975;47.872;12.972;2023-04-10T05:42:46;2.80;99.90
21627;DHT22;10975;47.872;12.972;2023-04-10T05:45:13;2.90;99.90
21627;DHT22;10975;47.872;12.972;2023-04-10T05:47:40;2.90;99.90
21627;DHT22;10975;47.872;12.972;2023-04-10T05:50:07;2.90;99.90
21627;DHT22;10975;47.872;12.972;2023-04-10T05:52:34;3.00;99.90
21627;DHT22;10975;47.872;12.972;2023-04-10T05:55:01;3.00;99.90
21627;DHT22;10975;47.872;12.972;2023-04-10T05:57:28;3.10;99.90
21627;DHT22;10975;47.872;12.972;2023-04-10T05:59:55;3.10;99.90
21627;DHT22;10975;47.872;12.972;2023-04-10T06:02:21;3.20;99.90
21627;DHT22;10975;47.872;12.972;2023-04-10T06:04:48;3.20;99.90
21627;DHT22;10975;47.872;12.972;2023-04-10T06:07:15;3.30;99.90
21627;DHT22;10975;47.872;12.972;2023-04-10T06:09:42;3.30;99.90
21627;DHT22;10975;47.872;12.972;2023-04-10T06:12:08;3.40;99.90
21627;DHT22;10975;47.872;12.972;2023-04-10T06:14:35;3.50;99.90
21627;DHT22;10975;47.872;12.972;2023-04-10T06:17:02;3.50;99.90
21627;DHT22;10975;47.872;12.972;2023-04-10T06:19:28;3.60;99.90
21627;DHT22;10975;47.872;12.972;2023-04-10T06:21:55;3.60;99.90
21627;DHT22;10975;47.872;12.972;2023-04-10T06:24:22;3.70;99.90
21627;DHT22;10975;47.872;12.972;2023-04-10T06:26:49;3.70;99.90
21627;DHT22;10975;47.872;12.972;2023-04-10T06:29:15;3.80;99.90
21627;DHT22;10975;47.872;12.972;2023-04-10T06:31:42;3.90;99.90
21627;DHT22;10975;47.872;12.972;2023-04-10T06:34:09;3.90;99.90
21627;DHT22;10975;47.872;12.972;2023-04-10T06:36:36;4.00;99.90
21627;DHT22;10975;47.872;12.972;2023-04-10T06:39:06;4.10;99.90
21627;DHT22;10975;47.872;12.972;2023-04-10T06:41:32;4.10;99.90
21627;DHT22;10975;47.872;12.972;2023-04-10T06:43:59;4.20;99.90
21627;DHT22;10975;47.872;12.972;2023-04-10T06:46:29;4.30;99.90
21627;DHT22;10975;47.872;12.972;2023-04-10T06:48:55;4.30;99.90
21627;DHT22;10975;47.872;12.972;2023-04-10T06:51:22;4.40;99.90
21627;DHT22;10975;47.872;12.972;2023-04-10T06:53:49;4.50;99.90
21627;DHT22;10975;47.872;12.972;2023-04-10T06:56:15;4.50;99.90
21627;DHT22;10975;47.872;12.972;2023-04-10T06:58:42;4.60;99.90
21627;DHT22;10975;47.872;12.972;2023-04-10T07:01:09;4.70;99.90
21627;DHT22;10975;47.872;12.972;2023-04-10T07:03:36;4.80;99.90
21627;DHT22;10975;47.872;12.972;2023-04-10T07:06:02;4.90;99.90
21627;DHT22;10975;47.872;12.972;2023-04-10T07:08:29;5.00;99.90
21627;DHT22;10975;47.872;12.972;2023-04-10T07:10:56;5.10;99.90
21627;DHT22;10975;47.872;12.972;2023-04-10T07:13:24;5.20;99.90
21627;DHT22;10975;47.872;12.972;2023-04-10T07:15:51;5.30;99.90
21627;DHT22;10975;47.872;12.972;2023-04-10T07:18:17;5.40;99.90
21627;DHT22;10975;47.872;12.972;2023-04-10T07:20:44;5.40;99.90
21627;DHT22;10975;47.872;12.972;2023-04-10T07:23:11;5.60;99.90
21627;DHT22;10975;47.872;12.972;2023-04-10T07:25:39;5.70;99.90
21627;DHT22;10975;47.872;12.972;2023-04-10T07:28:05;5.80;99.90
21627;DHT22;10975;47.872;12.972;2023-04-10T07:30:32;5.90;99.90
21627;DHT22;10975;47.872;12.972;2023-04-10T07:32:59;6.00;99.90
21627;DHT22;10975;47.872;12.972;2023-04-10T07:35:26;6.10;99.90
21627;DHT22;10975;47.872;12.972;2023-04-10T07:37:53;6.20;99.90
21627;DHT22;10975;47.872;12.972;2023-04-10T07:40:29;6.30;99.90
21627;DHT22;10975;47.872;12.972;2023-04-10T07:42:58;6.40;99.90
21627;DHT22;10975;47.872;12.972;2023-04-10T07:45:25;6.50;99.90
21627;DHT22;10975;47.872;12.972;2023-04-10T07:47:54;6.60;99.90
21627;DHT22;10975;47.872;12.972;2023-04-10T07:50:20;6.70;99.90
21627;DHT22;10975;47.872;12.972;2023-04-10T07:52:48;6.80;99.90
21627;DHT22;10975;47.872;12.972;2023-04-10T07:55:15;6.90;99.90
21627;DHT22;10975;47.872;12.972;2023-04-10T07:57:41;7.00;99.90
21627;DHT22;10975;47.872;12.972;2023-04-10T08:00:08;7.10;99.90
21627;DHT22;10975;47.872;12.972;2023-04-10T08:02:35;7.20;99.90
21627;DHT22;10975;47.872;12.972;2023-04-10T08:05:02;7.20;99.90
21627;DHT22;10975;47.872;12.972;2023-04-10T08:07:29;7.30;99.90
21627;DHT22;10975;47.872;12.972;2023-04-10T08:09:56;7.40;99.90
21627;DHT22;10975;47.872;12.972;2023-04-10T08:12:23;7.50;99.90
21627;DHT22;10975;47.872;12.972;2023-04-10T08:14:50;7.60;99.90
21627;DHT22;10975;47.872;12.972;2023-04-10T08:17:17;7.70;99.90
21627;DHT22;10975;47.872;12.972;2023-04-10T08:19:44;7.80;99.90
21627;DHT22;10975;47.872;12.972;2023-04-10T08:22:10;7.80;99.90
21627;DHT22;10975;47.872;12.972;2023-04-10T08:24:37;7.90;99.90
21627;DHT22;10975;47.872;12.972;2023-04-10T08:27:04;7.90;99.90
21627;DHT22;10975;47.872;12.972;2023-04-10T08:29:31;8.00;99.90
21627;DHT22;10975;47.872;12.972;2023-04-10T08:31:57;8.10;99.90
21627;DHT22;10975;47.872;12.972;2023-04-10T08:34:28;8.10;99.90
21627;DHT22;10975;47.872;12.972;2023-04-10T08:36:55;8.20;99.90
21627;DHT22;10975;47.872;12.972;2023-04-10T08:39:22;8.30;99.90
21627;DHT22;10975;47.872;12.972;2023-04-10T08:41:49;8.40;99.90
21627;DHT22;10975;47.872;12.972;2023-04-10T08:44:16;8.40;99.90
21627;DHT22;10975;47.872;12.972;2023-04-10T08:46:43;8.50;99.90
21627;DHT22;10975;47.872;12.972;2023-04-10T08:49:22;8.60;99.90
21627;DHT22;10975;47.872;12.972;2023-04-10T08:51:58;8.60;99.90
21627;DHT22;10975;47.872;12.972;2023-04-10T08:54:28;8.60;99.90
21627;DHT22;10975;47.872;12.972;2023-04-10T08:56:55;8.60;99.90
21627;DHT22;10975;47.872;12.972;2023-04-10T08:59:22;8.60;99.90
21627;DHT22;10975;47.872;12.972;2023-04-10T09:01:49;8.70;99.90
21627;DHT22;10975;47.872;12.972;2023-04-10T09:04:16;8.70;99.90
21627;DHT22;10975;47.872;12.972;2023-04-10T09:06:43;8.90;99.90
21627;DHT22;10975;47.872;12.972;2023-04-10T09:09:10;9.00;99.90
21627;DHT22;10975;47.872;12.972;2023-04-10T09:14:30;9.20;99.90
21627;DHT22;10975;47.872;12.972;2023-04-10T09:19:36;9.30;99.90
21627;DHT22;10975;47.872;12.972;2023-04-10T09:22:03;9.40;99.90
21627;DHT22;10975;47.872;12.972;2023-04-10T09:24:30;9.50;99.90
21627;DHT22;10975;47.872;12.972;2023-04-10T09:27:01;9.50;99.90
21627;DHT22;10975;47.872;12.972;2023-04-10T09:29:37;9.50;99.90
21627;DHT22;10975;47.872;12.972;2023-04-10T09:32:04;9.50;99.90
21627;DHT22;10975;47.872;12.972;2023-04-10T09:34:30;9.60;99.90
21627;DHT22;10975;47.872;12.972;2023-04-10T09:36:58;9.60;99.90
21627;DHT22;10975;47.872;12.972;2023-04-10T09:39:32;9.60;99.90
21627;DHT22;10975;47.872;12.972;2023-04-10T09:41:59;9.60;99.90
21627;DHT22;10975;47.872;12.972;2023-04-10T09:44:30;9.70;99.90
21627;DHT22;10975;47.872;12.972;2023-04-10T09:46:57;9.80;99.90
21627;DHT22;10975;47.872;12.972;2023-04-10T09:49:24;9.90;99.90
21627;DHT22;10975;47.872;12.972;2023-04-10T09:51:51;10.00;99.90
21627;DHT22;10975;47.872;12.972;2023-04-10T09:54:18;10.10;99.90
21627;DHT22;10975;47.872;12.972;2023-04-10T09:57:00;10.20;99.90
21627;DHT22;10975;47.872;12.972;2023-04-10T09:59:29;10.30;99.90
21627;DHT22;10975;47.872;12.972;2023-04-10T10:01:55;10.20;99.90
21627;DHT22;10975;47.872;12.972;2023-04-10T10:04:22;10.00;99.90
21627;DHT22;10975;47.872;12.972;2023-04-10T10:06:50;10.10;99.90
21627;DHT22;10975;47.872;12.972;2023-04-10T10:09:17;10.20;99.90
21627;DHT22;10975;47.872;12.972;2023-04-10T10:11:43;10.30;99.90
21627;DHT22;10975;47.872;12.972;2023-04-10T10:14:14;10.50;99.90
21627;DHT22;10975;47.872;12.972;2023-04-10T10:16:42;10.70;99.90
21627;DHT22;10975;47.872;12.972;2023-04-10T10:21:38;10.90;99.90
21627;DHT22;10975;47.872;12.972;2023-04-10T10:24:08;10.90;99.90
21627;DHT22;10975;47.872;12.972;2023-04-10T10:26:36;10.80;99.90
21627;DHT22;10975;47.872;12.972;2023-04-10T10:29:04;10.80;99.90
21627;DHT22;10975;47.872;12.972;2023-04-10T10:31:32;10.90;99.90
21627;DHT22;10975;47.872;12.972;2023-04-10T10:34:00;11.00;99.90
21627;DHT22;10975;47.872;12.972;2023-04-10T10:36:30;11.20;99.90
21627;DHT22;10975;47.872;12.972;2023-04-10T10:41:34;10.90;99.90
21627;DHT22;10975;47.872;12.972;2023-04-10T10:49:03;11.00;99.90
21627;DHT22;10975;47.872;12.972;2023-04-10T10:54:32;11.00;99.90
21627;DHT22;10975;47.872;12.972;2023-04-10T10:57:00;11.00;99.90
21627;DHT22;10975;47.872;12.972;2023-04-10T11:02:12;11.10;99.90
21627;DHT22;10975;47.872;12.972;2023-04-10T11:04:46;11.10;99.90
21627;DHT22;10975;47.872;12.972;2023-04-10T11:07:14;11.20;99.90
21627;DHT22;10975;47.872;12.972;2023-04-10T11:09:53;11.20;99.90
21627;DHT22;10975;47.872;12.972;2023-04-10T11:12:25;11.30;99.90
21627;DHT22;10975;47.872;12.972;2023-04-10T11:14:58;11.30;99.90
21627;DHT22;10975;47.872;12.972;2023-04-10T11:18:08;11.40;99.90
21627;DHT22;10975;47.872;12.972;2023-04-10T11:20:19;11.40;99.90
21627;DHT22;10975;47.872;12.972;2023-04-10T11:23:06;11.50;99.90
21627;DHT22;10975;47.872;12.972;2023-04-10T11:25:49;11.50;99.90
21627;DHT22;10975;47.872;12.972;2023-04-10T11:33:46;11.50;99.90
21627;DHT22;10975;47.872;12.972;2023-04-10T11:36:13;11.50;99.90
21627;DHT22;10975;47.872;12.972;2023-04-10T11:38:57;11.50;99.90
21627;DHT22;10975;47.872;12.972;2023-04-10T11:43:56;11.40;99.90
21627;DHT22;10975;47.872;12.972;2023-04-10T11:46:23;11.60;99.90
21627;DHT22;10975;47.872;12.972;2023-04-10T11:48:51;11.60;99.90
21627;DHT22;10975;47.872;12.972;2023-04-10T11:51:18;11.70;99.90
21627;DHT22;10975;47.872;12.972;2023-04-10T11:53:44;11.70;99.90
21627;DHT22;10975;47.872;12.972;2023-04-10T11:56:15;11.70;99.90
21627;DHT22;10975;47.872;12.972;2023-04-10T11:58:42;11.80;99.90
21627;DHT22;10975;47.872;12.972;2023-04-10T12:01:09;11.80;99.90
21627;DHT22;10975;47.872;12.972;2023-04-10T12:03:41;11.90;99.90
21627;DHT22;10975;47.872;12.972;2023-04-10T12:06:12;11.90;99.90
21627;DHT22;10975;47.872;12.972;2023-04-10T12:08:40;12.00;99.90
21627;DHT22;10975;47.872;12.972;2023-04-10T12:11:08;12.00;99.90
21627;DHT22;10975;47.872;12.972;2023-04-10T12:13:35;12.10;99.90
21627;DHT22;10975;47.872;12.972;2023-04-10T12:16:08;12.10;99.90
21627;DHT22;10975;47.872;12.972;2023-04-10T12:18:35;12.00;99.90
21627;DHT22;10975;47.872;12.972;2023-04-10T12:21:03;12.00;99.90
21627;DHT22;10975;47.872;12.972;2023-04-10T12:23:32;12.00;99.90
21627;DHT22;10975;47.872;12.972;2023-04-10T12:28:56;12.10;99.90
21627;DHT22;10975;47.872;12.972;2023-04-10T12:31:34;12.10;99.90
21627;DHT22;10975;47.872;12.972;2023-04-10T12:34:02;12.20;99.90
21627;DHT22;10975;47.872;12.972;2023-04-10T12:36:30;12.20;99.90
21627;DHT22;10975;47.872;12.972;2023-04-10T12:39:00;12.20;99.90
21627;DHT22;10975;47.872;12.972;2023-04-10T12:41:31;12.20;99.90
21627;DHT22;10975;47.872;12.972;2023-04-10T12:46:34;12.40;99.90
21627;DHT22;10975;47.872;12.972;2023-04-10T12:52:11;12.40;99.90
21627;DHT22;10975;47.872;12.972;2023-04-10T12:56:58;12.40;99.90
21627;DHT22;10975;47.872;12.972;2023-04-10T12:59:26;12.50;99.90
21627;DHT22;10975;47.872;12.972;2023-04-10T13:01:53;12.40;99.90
21627;DHT22;10975;47.872;12.972;2023-04-10T13:07:26;12.40;99.90
21627;DHT22;10975;47.872;12.972;2023-04-10T13:09:53;12.60;99.90
21627;DHT22;10975;47.872;12.972;2023-04-10T13:12:20;12.70;99.90
21627;DHT22;10975;47.872;12.972;2023-04-10T13:14:47;12.70;99.90
21627;DHT22;10975;47.872;12.972;2023-04-10T13:17:14;12.70;99.90
21627;DHT22;10975;47.872;12.972;2023-04-10T13:19:41;12.70;99.90
21627;DHT22;10975;47.872;12.972;2023-04-10T13:22:08;12.70;99.90
21627;DHT22;10975;47.872;12.972;2023-04-10T13:24:34;12.80;99.90
21627;DHT22;10975;47.872;12.972;2023-04-10T13:27:02;12.80;99.90
21627;DHT22;10975;47.872;12.972;2023-04-10T13:29:29;12.90;99.90
21627;DHT22;10975;47.872;12.972;2023-04-10T13:31:56;12.90;99.90
21627;DHT22;10975;47.872;12.972;2023-04-10T13:34:23;12.90;99.90
21627;DHT22;10975;47.872;12.972;2023-04-10T13:36:49;12.90;99.90
21627;DHT22;10975;47.872;12.972;2023-04-10T13:39:16;12.90;99.90
21627;DHT22;10975;47.872;12.972;2023-04-10T13:41:44;12.90;99.90
21627;DHT22;10975;47.872;12.972;2023-04-10T13:44:10;12.90;99.90
21627;DHT22;10975;47.872;12.972;2023-04-10T13:46:37;13.00;99.90
21627;DHT22;10975;47.872;12.972;2023-04-10T13:49:04;13.00;99.90
21627;DHT22;10975;47.872;12.972;2023-04-10T13:51:30;13.00;99.90
21627;DHT22;10975;47.872;12.972;2023-04-10T13:53:57;13.00;99.90
21627;DHT22;10975;47.872;12.972;2023-04-10T13:56:24;12.90;99.90
21627;DHT22;10975;47.872;12.972;2023-04-10T13:58:51;13.00;99.90
21627;DHT22;10975;47.872;12.972;2023-04-10T14:01:19;13.00;99.90
21627;DHT22;10975;47.872;12.972;2023-04-10T14:03:46;13.10;99.90
21627;DHT22;10975;47.872;12.972;2023-04-10T14:06:13;13.20;99.90
21627;DHT22;10975;47.872;12.972;2023-04-10T14:08:40;13.20;99.90
21627;DHT22;10975;47.872;12.972;2023-04-10T14:11:06;13.30;99.90
21627;DHT22;10975;47.872;12.972;2023-04-10T14:13:33;13.30;99.90
21627;DHT22;10975;47.872;12.972;2023-04-10T14:16:01;13.30;99.90
21627;DHT22;10975;47.872;12.972;2023-04-10T14:18:29;13.30;99.90
21627;DHT22;10975;47.872;12.972;2023-04-10T14:20:56;13.50;99.90
21627;DHT22;10975;47.872;12.972;2023-04-10T14:23:22;13.60;99.90
21627;DHT22;10975;47.872;12.972;2023-04-10T14:25:49;13.60;99.90
21627;DHT22;10975;47.872;12.972;2023-04-10T14:28:16;13.50;99.90
21627;DHT22;10975;47.872;12.972;2023-04-10T14:30:47;13.50;99.90
21627;DHT22;10975;47.872;12.972;2023-04-10T14:33:14;13.60;99.90
21627;DHT22;10975;47.872;12.972;2023-04-10T14:35:42;13.60;99.90
21627;DHT22;10975;47.872;12.972;2023-04-10T14:38:09;13.60;99.90
21627;DHT22;10975;47.872;12.972;2023-04-10T14:40:36;13.60;99.90
21627;DHT22;10975;47.872;12.972;2023-04-10T14:43:02;13.70;99.90
21627;DHT22;10975;47.872;12.972;2023-04-10T14:45:29;13.80;99.90
21627;DHT22;10975;47.872;12.972;2023-04-10T14:47:58;13.80;99.90
21627;DHT22;10975;47.872;12.972;2023-04-10T14:50:24;13.90;99.90
21627;DHT22;10975;47.872;12.972;2023-04-10T14:52:53;13.90;99.90
21627;DHT22;10975;47.872;12.972;2023-04-10T14:55:20;13.80;99.90
21627;DHT22;10975;47.872;12.972;2023-04-10T14:57:47;13.90;99.90
21627;DHT22;10975;47.872;12.972;2023-04-10T15:00:14;14.00;99.90
21627;DHT22;10975;47.872;12.972;2023-04-10T15:02:40;14.00;99.90
21627;DHT22;10975;47.872;12.972;2023-04-10T15:05:07;13.90;99.90
21627;DHT22;10975;47.872;12.972;2023-04-10T15:07:34;13.90;99.90
21627;DHT22;10975;47.872;12.972;2023-04-10T15:13:23;13.90;99.90
21627;DHT22;10975;47.872;12.972;2023-04-10T15:15:50;13.90;99.90
21627;DHT22;10975;47.872;12.972;2023-04-10T15:18:16;13.90;99.90
21627;DHT22;10975;47.872;12.972;2023-04-10T15:20:43;14.00;99.90
21627;DHT22;10975;47.872;12.972;2023-04-10T15:23:10;14.00;99.90
21627;DHT22;10975;47.872;12.972;2023-04-10T15:25:37;14.00;99.90
21627;DHT22;10975;47.872;12.972;2023-04-10T15:28:03;14.00;99.90
21627;DHT22;10975;47.872;12.972;2023-04-10T15:30:30;13.90;99.90
21627;DHT22;10975;47.872;12.972;2023-04-10T15:32:57;13.90;99.90
21627;DHT22;10975;47.872;12.972;2023-04-10T15:35:24;13.90;99.90
21627;DHT22;10975;47.872;12.972;2023-04-10T15:37:53;13.90;99.90
21627;DHT22;10975;47.872;12.972;2023-04-10T15:40:19;13.90;99.90
21627;DHT22;10975;47.872;12.972;2023-04-10T15:42:46;13.90;99.90
21627;DHT22;10975;47.872;12.972;2023-04-10T15:45:13;13.90;99.90
21627;DHT22;10975;47.872;12.972;2023-04-10T15:47:40;13.90;99.90
21627;DHT22;10975;47.872;12.972;2023-04-10T15:50:06;13.90;99.90
21627;DHT22;10975;47.872;12.972;2023-04-10T15:52:36;13.90;99.90
21627;DHT22;10975;47.872;12.972;2023-04-10T15:55:03;14.00;99.90
21627;DHT22;10975;47.872;12.972;2023-04-10T15:57:29;13.90;99.90
21627;DHT22;10975;47.872;12.972;2023-04-10T15:59:56;13.90;99.90
21627;DHT22;10975;47.872;12.972;2023-04-10T16:02:25;13.80;99.90
21627;DHT22;10975;47.872;12.972;2023-04-10T16:04:53;13.80;99.90
21627;DHT22;10975;47.872;12.972;2023-04-10T16:07:20;13.70;99.90
21627;DHT22;10975;47.872;12.972;2023-04-10T16:09:47;13.60;99.90
21627;DHT22;10975;47.872;12.972;2023-04-10T16:12:13;13.60;99.90
21627;DHT22;10975;47.872;12.972;2023-04-10T16:14:40;13.50;99.90
21627;DHT22;10975;47.872;12.972;2023-04-10T16:17:07;13.50;99.90
21627;DHT22;10975;47.872;12.972;2023-04-10T16:19:33;13.40;99.90
21627;DHT22;10975;47.872;12.972;2023-04-10T16:22:00;13.30;99.90
21627;DHT22;10975;47.872;12.972;2023-04-10T16:24:42;13.20;99.90